Timeline UpdatesTrip UpdatesNews PostsPvt PostsTravel TipsAdmin PostsConv PostsFollowed PostsChat RequestsBlog PostsPNR Posts

Disclaimer
Search
 
 
Thu Oct 2, 2014 18:00:03 ISTHomeTrainsΣChainsAtlasPNRForumGalleryNewsFAQTripsMembersLoginFeedback
No Recent News for this Train
Other Trains in the News **new
Latest...
2S avbl b/w mumbai & surat .
Tue Feb 04, 2014 (12:55AM)
⇐ Return Journey: Train# 19024

19023/Mumbai Firozpur Janta Express

Time-Table HAS CHANGED.
Sep 02 (12:00AM)
Change Departure Station:
Change Arrival Station:
Post a Train Travel TipPost a Train Travel Tip **new
Post a Comment/Question/Picture/VideoPost a Comment/Question/Picture/Video
Inaugural Run
Mon Oct 01, 1956
Pantry/Catering
✕ NO Pantry Car
✓ Catering Avbl
Catering from local vendors
RSA - Rake Sharing
No RSA. Independent Rake.
Rake/Coach Composition
LOCO, HCPV, SLR, GS, S-8, S-7, S-6, S-5, S-4, S-3, S-2, S-1, GS, GS(MST), GS, SLR Author: Manish Kr Singh Entry: 640399
Loco
BCT NDLS = GZB WAP#5, NDLS-FZR TKD WDP-4/4B
News    PNR    Forum    Time-Table    Availability    Fare Chart    Map    Arr/Dep History    Trips    Gallery    ΣChains    X/O    Timeline    
Travel Time: 31h 11m    67 halts    Distance: 1425 km    Avg Speed: 45 km/hr
Type: Mail/Express
Zone: WR/Western
Departs @ 15:09 (Avg 25m late)
Platform# ???
SMTWTFS
Palej/PLJ 
Arrives @ 22:20 +1 night (Avg 1m early)
Platform# 1
SMTWTFS
Firozpur Cantt. Junction/FZR 

67 halts. 212 intermediate Stations between Palej and Firozpur Cantt. Junction

Show ALL intermediate Stations  Show Old Time-Table

#CodeStation NameX/OArrivesAvgDepartsAvgHaltPFDay#KmSpeedElevZoneAddress
1BCTMumbai Central (9)  -07:25+141-347.8403mWRMumbai 400008, Maharashtra
2DDRMumbai Dadar Western (6)  07:34+407:37+43m31-341.9536mWRMumbai, Maharashtra
3BVIMumbai Borivali (8)  08:04+608:07+63m41-318.15119mWRMumbai - 400092, Maharashtra
4PLGPalghar (3)O  09:14+909:16+122m11-261.14219mWRPalghar, Maharashtra
5BORBoisar (3)X  09:32+609:34+92m21-249.93317mWRBoisar Tel.no-02525-266626, Maharashtra
6VGNVangaon (3)XO  09:51+209:52+51m11-240.55311mWRDist. Palghar, Maharashtra
7DRDDahanu Road (5)X  10:06+210:08+42m11-228.27612mWRDahanu, Maharashtra
8UBRUmbargam Road (3)XO  10:24+510:26+52m11-207.93630mWRUmbergaon, Gujarat
9SJNSanjan (3)X  10:34 10:35+410:36 10:37+52m11-202.56922mWRSanjan, Gujarat
10BLDBhilad (3)  10:46 10:47+510:48 10:49+52m21-190.96233mWRBhilad, Gujarat
11VAPIVapi (3)X  11:00+511:02+72m11-179.64827mWRVapi, Gujarat
12UVDUdvada (3)X  11:14+511:16+52m--1-170.16018mWRUdvada, Gujarat
13PADPardi (3)X  11:22+511:24+52m--1-164.14919mWRValsad, Gujarat
14BLValsad (3)X  11:42 11:37+311:47 11:42+75m21-153.47215mWRValsad, Gujarat
15BIMBilimora Junction (4)X  11:59 11:57+912:01 12:02+82 5m11-135.53711mWRBilimora, Gujarat
16AMLAmalsad (3)  12:10 12:11+612:12 12:13+62m11-129.910412mWRAmalsad, Gujarat
17NVSNavsari (3)X  12:22+1112:27+105m11-114.34614mWRNavsari, Gujarat
18MRLMaroli (3)X  12:38+912:40+112m11-105.92715mWRMaroli, Gujarat
19STSurat (4)X  13:27+213:37+310m11-84.77919mWRSurat 395001, Gujarat
20KIMKim (2)X  13:55+2313:57+232m11-61.15818mWRNH 8, Gujarat
21KSBKosamba Junction (3)  14:05+2514:07+242m11-53.37130mWRKosamba, Gujarat
22PAOPanoli (3)  14:14+2514:16+242m11-45.17729mWRPanoli, Gujarat
23AKVAnkleshwar Junction (4)  14:24+2614:26+262m11-34.83719mWRAnkleshwar, Gujarat
24BHBharuch Junction (5)  14:41+2414:46+225m31-25.48019mWRBharuch, Gujarat
25NIUNabipur (3)14:55+2614:57+262m--1-13.48024mWRNabipur, Gujarat
26PLJPalej (4)»X  15:07+2615:09+252m--10.08329mWRPalej, Gujarat
27MYGMiyagam Karjan (2)X  15:20+2715:22+262m2115.35429mWRKarjan, Gujarat
28BRCVadodara Junction (7)  15:55+2816:05+2710m6145.17336mWRVadodara 390005, Gujarat
29SMLASamlaya Junction (3)  16:27+1:0016:29+1:002m--171.77567mWRVadodara, Gujarat
30DRLDerol  16:48+4316:50+432m--195.44381mWRKalol, Gujarat
31GDAGodhra Junction (3)  17:23+1817:28+175m21119.058122mWRGodhra, Gujarat
32SATSant Road (2)X  17:47 17:49+3517:49 17:51+342m--1139.471169mWROrwara, Gujarat
33PPDPiplod Junction  17:59 18:01+3718:01 18:02+372 1m--1151.268209mWRPiplod, Gujarat
34LMKLimkheda  18:07 18:09+3918:09 18:10+392 1m--1159.173205mWRLimkheda, Gujarat
35DHDDahod (3)  18:37+4118:42+405m--1192.190313mWRDahod, Gujarat
36MGNMeghnagar (3)X  19:02 19:04+4719:04 19:06+472m--1225.260317mWRJhabua, Madhya Pradesh
37THDRThandla Road (2)X  19:12 19:14+4619:14 19:15+462 1m--1233.269317mWRJhabua, Madhya Pradesh
38BMIBamnia (2)X  19:37 19:39+4819:39 19:41+472m--1260.850392mWRBamnia, Madhya Pradesh
39RTMRatlam Junction (7)X  20:35+3220:55+3020m51305.566495mWRRatlam, Madhya Pradesh
40KUHKhachrod (2)X  21:17 21:20+3621:19 21:22+362m--1333.122497mWRUjjain, Madhya Pradesh
41NADNagda Junction (4)X  22:00+1322:05+145m--1346.968468mWRNagda, Madhya Pradesh
42MEPMahidpur Road  22:20+2322:22+232m--1364.090493mWCRGogapur, Madhya Pradesh
43VMAVikramgarh Alot (2)X  22:38+2322:40+242m21387.982443mWCRKota Division, Madhya Pradesh
44CMUChau Mahla (3)  22:56+2622:58+262m21409.766426mWCRJhalawar, Rajasthan
45SVASuwasra (2)  23:12+2623:14+262m--1425.158450mWCRSuwasra, Madhya Pradesh
46SGZShamgarh (3)  23:28+2423:30+252m--1438.569463mWCRMandsaur, Madhya Pradesh
47BWMBhawani Mandi (3)  23:59+2000:01+222m--1472.071384mWCRBhawani Mandi, Madhya Pradesh
48JHWJhalawar Road (3)X  00:15+2200:17+222m--2488.553361mWCRJhalawar City, Rajasthan
49RMARamganj Mandi Junction (3)X  00:31+1700:33+192m--2500.982358mWCRRamganj Mandi, Rajasthan
50KOTAKota Junction (5)X  01:25+2801:35+3110m12572.171256mWCRKota, Rajasthan
51LKELakheri (3)X  02:26+2802:28+292m--2632.755228mWCRBundi, Rajasthan
52IDGIndargarh Sumerganj Mandi (2)X  02:40+2902:42+322m--2643.766247mWCRIndargarh, Rajasthan
53SWMSawai Madhopur Junction (4)X  03:15+3303:20+345m--2679.972266mWCRSawai Madhopur, Rajasthan
54MLZMalarna  03:45+3403:47+362m--2710.144236mWCRSawai Madhopur, Rajasthan
55NNWNarayanpur Tatwara (2)XO  04:10+3104:12+1:002m--2726.912256mWCRSawai Madhopur, Rajasthan
56GGCGangapur City (3)OO  05:40+605:45+185m12743.960270mWCRGangapur, Rajasthan
57SMBJShri Mahabirji (3)  06:19+1406:20+171m--2777.947240mWCRKarauli, Rajasthan
58HANHindaun City (2)  06:33+1506:35+232m--2788.179230mWCRKarauli, Rajasthan
59FSPFateh Singhpura  06:45+2606:47+262m--2801.366223mWCRState Highway 1, Rajasthan
60BXNBayana Junction (3)  07:05+2907:10+345m--2821.050198mWCRBayana, Rajasthan
61BTEBharatpur Junction (5)X  08:00+1808:05+345m--2863.024174mWCRBharatpur, Rajasthan
62MTJMathura Junction (10)  09:35 09:30-109:45 09:35+610 5m42896.569179mNCRMathura, Uttar Pradesh
63CHJChata (4)X  10:07 10:02+810:09 10:04+92m--2927.751 NCRChhata, Uttar Pradesh
64KSVKosi Kalan (3)X  10:20 10:16+910:22 10:18+92m12938.054189mNCRKosi Kalan, Uttar Pradesh
65PWLPalwal (8)X  11:08 11:05-111:10 11:07+32m--2980.479200mNRPalwal, Haryana
66BVHBallabgarh (5)X  11:28 11:23+811:30 11:25+82m--21001.640203mNRFaridabad, Haryana
67FDBFaridabad (4)X  11:41 11:37+911:43 11:39+92m221009.756206mNRold Faridabad, Haryana
68TKDTuglakabad (4)  11:55 11:51+1211:57 11:53+122m--21020.828213mNRNear Tughlakabad Metro Station, Delhi NCT
69OKAOkhla (4)X  12:06+1212:08 12:07+112 1m--21026.828221mNRIshwar Nagar Mathura Road, Delhi NCT
70NZMDelhi Hazrat Nizamuddin (7)O  12:18 12:15+1012:20 12:17+102m321030.516209mNRNew Delhi 110013, Delhi NCT
71NDLSNew Delhi (16)XO  12:45+1013:15+830m121037.814215mNRNew Delhi, Delhi NCT
72DKZDelhi KishanGanj (2)  13:32+1913:34+192m--21041.730220mNRSarai Rohilla, Delhi NCT
73SSBShakur Basti  13:49 13:48+1913:51 13:50+212m--21048.745216mNRPitampura, Delhi NCT
74NNONangloi  14:00+2414:02+252m--21056.258219mNRJJ Colony No 1, Delhi NCT
75BGZBahadurgarh  14:14 14:15+2114:16 14:17+222m--21068.767220mNRBahadurgarh, Haryana
76SPZSampla  14:43 14:33+3214:45 14:35+332m--21086.634222mNRSampla, Haryana
77ROKRohtak Junction (3)  15:10 15:15+2015:15 15:20+185m--21108.982220mNRRohtak, Haryana
78JNAJulana  15:41 15:43+2515:43 15:45+252m--21140.351226mNRJulana, Haryana
79JINDJind Junction (3)  16:15+2016:20+185m--21166.075222mNRJind 126102, Haryana
80UCAUchana  16:35+2616:37+272m--21184.765225mNRDistrict Jind, Haryana
81NRWNarwana Junction (4)  16:51+3016:53+302m--21199.973235mNRWay to Narwana, Haryana
82TUNTohana (2)  17:14+2917:15+291m--21225.437232mNRTohana, Haryana
83JHLJakhal Junction  17:35+2417:40+225m--21237.678225mNRJakhal, Haryana
84BRZBareta  17:51+2617:53+262m--21251.871223mNRBareta, Punjab
85BLZBudhlada  18:06+2718:08+272m--21267.264223mNRBudhlada, Punjab
86MSZMansaX  18:23+1618:25+162m--21283.337222mNRMansa, Punjab
87KTKLKotli Kalan  18:39-18:41-2m--21291.9101219mNRState Highway 12A, Punjab
88MAURMaur  18:47+2218:49+222m--21302.035220mNRMaur Mandi, Punjab
89BTIBathinda Junction (6)  19:50+320:00+310m121337.567208mNRBathinda, Punjab
90GNAGoneana Bhai Jagta (3)  20:11+1220:13+132m121349.857206mNRGoniana, Punjab
91GJUTGangsar Jaitu (3)  20:28+1420:30+162m121364.049207mNRJaitu, Punjab
92KKPKot Kapura Junction (3)  20:50+1120:52+112m121380.3590mNRKotkapura, Punjab
93FDKFaridkot (3)  21:05+1021:07+102m121393.027202mNRFaridkot, Punjab
94FZRFirozpur Cantt. Junction (5)•  22:20-1-121425.3-200mNRFirozpur Cantt 152001, Punjab
Scroll to Top
Scroll to Bottom